Air Navigation Services of Czech Republic  
Last data update:  24.07.2016 22:08:20 UTC Česká verze
   METEO Page displayed:  24.07.2016 22:17:26 UTC  
help
METAR EDDB 242150Z 11003KT CAVOK 20/16 Q1018 NOSIG=
METAR EDDC 242150Z 05002KT CAVOK 19/18 Q1019=
METAR EDDE 242150Z 31001KT CAVOK 21/15 Q1019=
METAR EDDF 242150Z 31003KT 280V340 CAVOK 21/20 Q1018 NOSIG=
METAR EDDM 242150Z VRB02KT 9999 SCT045 SCT060 19/17 Q1019 NOSIG=
METAR EDDN 242150Z 00000KT 9999 MIFG NSC 19/18 Q1019=
METAR EDDP 242150Z 11007KT CAVOK 20/17 Q1018 NOSIG=
METAR EDDT 242150Z 14006KT CAVOK 22/15 Q1018=
METAR EDQM 241520Z 20005KT 9999 -RA BKN017 20/18 Q1020=
METAR EPBY 242200Z 07005KT CAVOK 21/17 Q1019 =
METAR EPGD 242200Z 30003KT 280V350 9999 FEW036 16/15 Q1020 =
METAR EPKK 242200Z 06005KT CAVOK 18/16 Q1017 =
METAR EPKT 242200Z VRB01KT CAVOK 18/16 Q1018 =
METAR EPLL 242200Z 09003KT CAVOK 21/16 Q1018 =
METAR EPPO 242200Z 06005KT 010V070 CAVOK 22/17 Q1019 =
METAR EPRZ 242200Z 04002KT CAVOK 19/15 Q1018 =
METAR EPWA 242200Z 08004KT CAVOK 23/15 Q1018 NOSIG=
METAR EPWR 242200Z 33003KT CAVOK 20/17 Q1018 =
METAR LHBP 242200Z VRB03KT CAVOK 22/19 Q1017 NOSIG=
METAR LHSM 242145Z 15003KT CAVOK 22/19 Q1017=
METAR LKCV 242200Z 21003KT CAVOK 17/16 Q1019 NOSIG=
METAR LKKB 242200Z 22003KT CAVOK 19/16 Q1019=
METAR LKKU NIL
METAR LKKV 242200Z VRB01KT 0450 R29/0500 FG VV002 16/16 Q1020 RMK REG QNH 1015=
METAR LKLN 242200Z AUTO 00000KT 4500 BR NSC 18/18 Q1020=
METAR LKMT 242200Z VRB02KT CAVOK 20/19 Q1018 NOSIG RMK REG QNH 1015=
METAR LKNA 242200Z 31003KT CAVOK 18/16 Q1020=
METAR LKPD 242200Z 26002KT CAVOK 20/18 Q1018=
METAR LKPR 242200Z 15003KT CAVOK 18/15 Q1019 NOSIG RMK REG QNH 1015=
METAR LKTB 242200Z 34003KT 9999 BKN049 21/18 Q1018 NOSIG RMK REG QNH 1015=
METAR LKVO NIL
METAR LOWI 242150Z AUTO 27003KT 9999 -RA FEW005 BKN048 18/17 Q1021=
METAR LOWL 242150Z AUTO VRB02KT 9999 NCD 21/18 Q1018=
METAR LOWS 242150Z AUTO 14003KT 9999 FEW120 BKN140 21/17 Q1019=
METAR LOWW 242150Z 26006KT 9999 FEW045 SCT070 23/20 Q1017 NOSIG=
METAR LZIB 242200Z 36001KT CAVOK 23/19 Q1017=
METAR LZKZ 242200Z 02002KT CAVOK 20/16 Q1018=
METAR LZPP 242200Z AUTO 33003KT 300V020 9999 SCT047/// BKN055/// OVC069/// 21/20 Q1017=
METAR LZSL 242200Z VRB01KT 9999 FEW062 20/18 Q1018=
METAR LZTT 242200Z 26003KT 220V280 9999 FEW043 17/15 Q1020=
METAR LZZI 242200Z VRB01KT 9999 FEW037 SCT087 20/18 Q1018=